Time;durP1;ratioP1;P1;durP2;ratioP2;P2;SDS_P1;SDS_P2;PMS_P1;PMS_P2;Temp;Humidity;BMP_temperature;BMP_pressure;BME280_temperature;BME280_humidity;BME280_pressure;Samples;Min_cycle;Max_cycle;Signal;HPM_P1;HPM_P2
2021/08/25 00:00:04;;;;;;;12.02;7.80;;;;;;;16.79;73.93;102529.03;5052441;28;20035;-85
2021/08/25 00:02:31;;;;;;;12.68;7.85;;;;;;;16.79;73.92;102529.03;5052068;28;20123;-85
2021/08/25 00:04:58;;;;;;;12.98;7.55;;;;;;;16.76;73.80;102536.16;5052282;28;20052;-86
2021/08/25 00:07:27;;;;;;;12.82;8.82;;;;;;;16.75;73.96;102525.31;5049273;28;20052;-85
2021/08/25 00:09:54;;;;;;;10.15;8.32;;;;;;;16.73;74.08;102525.66;5058437;28;20073;-85
2021/08/25 00:12:20;;;;;;;13.43;8.55;;;;;;;16.73;73.80;102519.25;5068675;28;20121;-85
2021/08/25 00:14:47;;;;;;;12.02;8.10;;;;;;;16.70;74.05;102514.34;5067573;28;20045;-84
2021/08/25 00:17:14;;;;;;;11.57;6.95;;;;;;;16.70;74.05;102508.75;5051595;28;20456;-85
2021/08/25 00:19:41;;;;;;;12.13;7.88;;;;;;;16.68;73.97;102505.50;5052145;28;20041;-85
2021/08/25 00:22:11;;;;;;;10.65;7.35;;;;;;;16.61;74.34;102516.41;5058598;28;20045;-84
2021/08/25 00:24:38;;;;;;;12.73;7.75;;;;;;;16.67;74.23;102504.66;5044766;28;20041;-85
2021/08/25 00:27:05;;;;;;;13.90;7.93;;;;;;;16.64;74.02;102498.94;5032281;28;20056;-85
2021/08/25 00:29:33;;;;;;;12.80;8.05;;;;;;;16.59;74.44;102507.53;5049453;28;20124;-85
2021/08/25 00:32:00;;;;;;;11.55;7.30;;;;;;;16.53;74.36;102508.91;5051681;28;20062;-84
2021/08/25 00:34:27;;;;;;;10.93;7.85;;;;;;;16.51;74.70;102506.44;5050752;28;20063;-85
2021/08/25 00:36:54;;;;;;;11.07;7.93;;;;;;;16.49;74.57;102502.34;5060064;28;20476;-84
2021/08/25 00:39:21;;;;;;;12.82;8.48;;;;;;;16.48;74.64;102506.28;5050785;28;20047;-86
2021/08/25 00:41:47;;;;;;;11.65;8.15;;;;;;;16.43;74.77;102502.56;5036371;28;20068;-86
2021/08/25 00:44:15;;;;;;;13.95;8.90;;;;;;;16.43;74.63;102502.56;5035110;28;20492;-85
2021/08/25 00:46:44;;;;;;;12.13;8.75;;;;;;;16.41;74.70;102504.06;5033962;28;20047;-85
2021/08/25 00:49:18;;;;;;;14.05;9.75;;;;;;;16.32;75.22;102498.53;5034392;28;20036;-86
2021/08/25 00:51:47;;;;;;;14.32;10.13;;;;;;;16.29;75.21;102498.41;5046852;28;20052;-83
2021/08/25 00:54:15;;;;;;;13.75;9.80;;;;;;;16.26;74.92;102494.31;5061283;28;20032;-85
2021/08/25 00:56:44;;;;;;;14.82;9.35;;;;;;;16.22;75.13;102484.97;5056803;28;20065;-85
2021/08/25 00:59:12;;;;;;;13.55;9.70;;;;;;;16.23;75.04;102486.59;5049238;28;20056;-85
2021/08/25 01:01:49;;;;;;;17.63;10.48;;;;;;;16.22;75.39;102482.19;5062177;28;20037;-85
2021/08/25 01:04:34;;;;;;;19.15;9.90;;;;;;;16.18;75.30;102464.44;5051835;28;20124;-85
2021/08/25 01:07:01;;;;;;;17.10;10.32;;;;;;;16.22;75.19;102476.59;5051028;28;20041;-85
2021/08/25 01:09:29;;;;;;;18.77;11.27;;;;;;;16.21;75.35;102468.53;5062940;28;20120;-85
2021/08/25 01:12:00;;;;;;;13.10;8.40;;;;;;;16.18;75.31;102469.22;5063480;28;20033;-85
2021/08/25 01:14:28;;;;;;;15.38;8.27;;;;;;;16.15;75.59;102467.13;5062679;28;20059;-85
2021/08/25 01:16:56;;;;;;;15.18;9.32;;;;;;;16.12;75.52;102465.84;5067945;28;20040;-84
2021/08/25 01:19:26;;;;;;;13.80;8.85;;;;;;;16.14;75.67;102462.69;5071793;28;20086;-85
2021/08/25 01:21:53;;;;;;;13.77;9.50;;;;;;;16.12;75.42;102460.25;5070068;28;20064;-85
2021/08/25 01:24:21;;;;;;;15.20;8.57;;;;;;;16.13;75.62;102453.47;5060985;28;20047;-84
2021/08/25 01:26:52;;;;;;;13.98;9.23;;;;;;;16.13;75.60;102450.69;5057671;28;20040;-85
2021/08/25 01:29:21;;;;;;;14.93;7.78;;;;;;;16.12;75.56;102445.47;5057517;28;20039;-85
2021/08/25 01:31:50;;;;;;;10.70;8.02;;;;;;;16.14;75.17;102440.34;5060441;28;20053;-85
2021/08/25 01:34:16;;;;;;;13.70;7.32;;;;;;;16.13;75.55;102433.09;5044384;28;20382;-85
2021/08/25 01:36:43;;;;;;;11.57;8.27;;;;;;;16.11;75.81;102441.00;5042493;28;20368;-85
2021/08/25 01:39:10;;;;;;;12.10;7.47;;;;;;;16.10;75.87;102437.41;5049815;28;20045;-85
2021/08/25 01:41:37;;;;;;;12.27;7.65;;;;;;;16.05;76.06;102440.41;5057680;28;20079;-85
2021/08/25 01:44:04;;;;;;;14.95;7.72;;;;;;;16.03;76.13;102428.75;5039517;28;20040;-85
2021/08/25 01:46:37;;;;;;;14.55;7.63;;;;;;;16.02;76.59;102429.13;5062229;28;20032;-84
2021/08/25 01:49:14;;;;;;;11.85;8.02;;;;;;;16.02;76.32;102429.91;5050373;28;20038;-85
2021/08/25 01:51:42;;;;;;;14.35;9.52;;;;;;;16.01;76.45;102433.06;5047971;28;20040;-84
2021/08/25 01:54:11;;;;;;;13.93;8.80;;;;;;;15.96;76.64;102424.88;5052925;28;20471;-85
2021/08/25 01:56:39;;;;;;;13.82;8.73;;;;;;;15.97;76.56;102424.53;5054534;28;20385;-84
2021/08/25 01:59:07;;;;;;;13.65;7.32;;;;;;;15.98;76.56;102419.75;5054540;28;20037;-85
2021/08/25 02:01:34;;;;;;;9.45;7.40;;;;;;;15.98;76.72;102416.97;5061472;28;20039;-85
2021/08/25 02:04:02;;;;;;;13.20;7.43;;;;;;;15.95;76.67;102421.25;5064965;28;20044;-85
2021/08/25 02:06:29;;;;;;;11.07;7.30;;;;;;;16.03;76.50;102417.59;5047548;28;20038;-85
2021/08/25 02:08:56;;;;;;;12.30;7.85;;;;;;;16.10;76.10;102417.00;5039482;28;20053;-84
2021/08/25 02:11:23;;;;;;;9.43;6.60;;;;;;;16.04;76.07;102424.81;5074482;28;20055;-85
2021/08/25 02:13:51;;;;;;;11.93;7.75;;;;;;;15.99;76.14;102422.19;5062180;28;20498;-85
2021/08/25 02:16:18;;;;;;;13.77;8.80;;;;;;;15.95;76.37;102421.25;5053926;28;20472;-85
2021/08/25 02:18:45;;;;;;;14.15;8.57;;;;;;;16.07;75.84;102418.50;5051127;28;20478;-85
2021/08/25 02:21:12;;;;;;;13.77;9.82;;;;;;;16.13;75.52;102411.56;5063378;28;20045;-84
2021/08/25 02:23:39;;;;;;;17.65;10.48;;;;;;;16.05;75.55;102406.03;5045847;28;20116;-84
2021/08/25 02:26:06;;;;;;;18.95;11.30;;;;;;;15.90;76.09;102413.09;5045396;28;20048;-84
2021/08/25 02:28:33;;;;;;;18.33;10.68;;;;;;;15.81;76.34;102415.13;5052901;28;20051;-85
2021/08/25 02:30:59;;;;;;;18.85;10.55;;;;;;;15.72;76.67;102412.41;5053930;28;20047;-85
2021/08/25 02:33:26;;;;;;;18.02;10.55;;;;;;;15.71;76.58;102409.94;5055008;28;20116;-85
2021/08/25 02:35:53;;;;;;;15.00;10.10;;;;;;;15.70;76.77;102397.16;5059420;28;20083;-85
2021/08/25 02:38:20;;;;;;;21.48;11.70;;;;;;;15.66;76.51;102397.00;5033815;28;20125;-86
2021/08/25 02:40:46;;;;;;;20.98;11.68;;;;;;;15.60;76.81;102412.31;5042861;28;20035;-85
2021/08/25 02:43:13;;;;;;;18.63;10.75;;;;;;;15.57;76.96;102392.63;5053348;28;20490;-85
2021/08/25 02:45:40;;;;;;;18.90;11.18;;;;;;;15.53;77.00;102397.25;5053627;28;20059;-85
2021/08/25 02:48:07;;;;;;;15.25;10.18;;;;;;;15.51;76.87;102405.16;5051943;28;20387;-85
2021/08/25 02:50:34;;;;;;;16.27;10.15;;;;;;;15.48;77.02;102395.50;5053368;28;20029;-85
2021/08/25 02:53:00;;;;;;;16.58;10.73;;;;;;;15.44;77.05;102391.69;5068502;28;20119;-85
2021/08/25 02:55:27;;;;;;;14.07;8.93;;;;;;;15.42;77.15;102396.81;5053467;28;20029;-84
2021/08/25 02:57:54;;;;;;;13.40;10.02;;;;;;;15.43;76.86;102398.47;5044229;28;20132;-84
2021/08/25 03:00:21;;;;;;;20.98;11.02;;;;;;;15.44;76.92;102388.09;5052761;28;20037;-84
2021/08/25 03:02:47;;;;;;;16.67;10.05;;;;;;;15.41;76.79;102386.00;5052998;28;20065;-85
2021/08/25 03:05:15;;;;;;;13.45;9.05;;;;;;;15.38;76.86;102395.03;5052810;28;20041;-84
2021/08/25 03:07:41;;;;;;;15.25;9.02;;;;;;;15.44;76.77;102388.91;5051175;28;20045;-85
2021/08/25 03:10:08;;;;;;;18.88;10.80;;;;;;;15.43;76.62;102384.50;5033297;28;20033;-84
2021/08/25 03:12:36;;;;;;;18.00;10.63;;;;;;;15.37;76.64;102377.47;5072813;28;20036;-85
2021/08/25 03:15:07;;;;;;;12.85;9.70;;;;;;;15.35;76.76;102384.56;5049666;28;20048;-85
2021/08/25 03:17:35;;;;;;;14.25;9.32;;;;;;;15.32;76.85;102390.81;5063580;28;20076;-85
2021/08/25 03:20:07;;;;;;;17.52;12.10;;;;;;;15.30;77.14;102387.53;5071426;28;20046;-85
2021/08/25 03:22:35;;;;;;;19.15;11.25;;;;;;;15.31;77.07;102384.41;5066095;28;20462;-84
2021/08/25 03:25:03;;;;;;;16.27;10.65;;;;;;;15.28;77.10;102390.66;5060577;28;20044;-85
2021/08/25 03:27:30;;;;;;;16.50;10.15;;;;;;;15.23;77.16;102382.47;5052157;28;20124;-85
2021/08/25 03:29:57;;;;;;;20.85;13.40;;;;;;;15.22;76.99;102380.84;5052771;28;20037;-85
2021/08/25 03:32:23;;;;;;;23.25;13.18;;;;;;;15.20;76.93;102383.97;5040791;28;20391;-85
2021/08/25 03:34:50;;;;;;;22.38;12.98;;;;;;;15.18;77.03;102380.72;5050233;28;20084;-85
2021/08/25 03:37:17;;;;;;;21.90;12.75;;;;;;;15.16;77.39;102380.22;5058699;28;20037;-85
2021/08/25 03:39:45;;;;;;;17.33;12.13;;;;;;;15.16;77.38;102383.03;5071210;28;20033;-84
2021/08/25 03:42:11;;;;;;;22.23;13.38;;;;;;;15.13;77.53;102377.28;5051684;28;20039;-84
2021/08/25 03:44:39;;;;;;;27.35;13.35;;;;;;;15.10;77.62;102367.63;5052727;28;20056;-85
2021/08/25 03:47:07;;;;;;;24.20;12.23;;;;;;;15.08;77.80;102374.69;5050411;28;20590;-85
2021/08/25 03:49:35;;;;;;;22.10;12.88;;;;;;;15.05;77.93;102370.59;5033308;28;20506;-84
2021/08/25 03:52:02;;;;;;;20.75;12.13;;;;;;;15.04;77.68;102363.38;5033712;28;20041;-85
2021/08/25 03:54:29;;;;;;;16.77;10.10;;;;;;;15.03;77.63;102361.75;5037413;28;20044;-85
2021/08/25 03:56:56;;;;;;;23.33;11.30;;;;;;;15.01;77.63;102357.69;5035047;28;20063;-85
2021/08/25 03:59:23;;;;;;;16.55;10.15;;;;;;;15.02;77.53;102360.13;5044246;28;20041;-84
2021/08/25 04:01:50;;;;;;;13.68;9.80;;;;;;;14.97;77.48;102357.50;5049801;28;20029;-84
2021/08/25 04:04:18;;;;;;;19.80;9.98;;;;;;;14.92;77.55;102349.34;5060827;28;20029;-84
2021/08/25 04:06:45;;;;;;;19.85;11.82;;;;;;;14.87;77.84;102352.31;5033374;28;20041;-85
2021/08/25 04:09:11;;;;;;;18.40;10.88;;;;;;;14.86;77.80;102361.84;5054218;28;20111;-84
2021/08/25 04:11:38;;;;;;;19.92;10.63;;;;;;;14.87;77.71;102357.91;5054694;28;20076;-85
2021/08/25 04:14:05;;;;;;;18.23;11.35;;;;;;;14.88;77.69;102359.50;5052224;28;20124;-85
2021/08/25 04:16:32;;;;;;;15.75;10.13;;;;;;;14.84;77.77;102358.56;5055494;28;20037;-84
2021/08/25 04:18:59;;;;;;;17.23;9.93;;;;;;;14.87;77.72;102352.31;5047769;28;20132;-84
2021/08/25 04:21:26;;;;;;;14.77;9.05;;;;;;;14.88;77.66;102353.16;5041668;28;20040;-84
2021/08/25 04:23:52;;;;;;;20.00;9.82;;;;;;;14.84;77.68;102353.00;5049132;28;20048;-85
2021/08/25 04:26:19;;;;;;;12.65;8.10;;;;;;;14.80;77.79;102354.78;5051601;28;20051;-84
2021/08/25 04:28:46;;;;;;;15.13;9.73;;;;;;;14.79;77.81;102355.97;5051074;28;20037;-84
2021/08/25 04:31:13;;;;;;;15.25;10.45;;;;;;;14.80;77.51;102356.78;5051110;28;20059;-84
2021/08/25 04:33:40;;;;;;;19.70;9.52;;;;;;;14.80;77.75;102357.59;5051810;28;20065;-84
2021/08/25 04:36:06;;;;;;;16.52;9.00;;;;;;;14.81;77.77;102359.22;5053718;28;20042;-84
2021/08/25 04:38:33;;;;;;;12.48;8.50;;;;;;;14.80;77.84;102356.78;5064281;28;20068;-84
2021/08/25 04:41:00;;;;;;;14.43;9.52;;;;;;;14.77;78.06;102355.50;5048644;28;20041;-84
2021/08/25 04:43:28;;;;;;;13.13;8.57;;;;;;;14.75;78.08;102348.59;5050854;28;20087;-85
2021/08/25 04:45:55;;;;;;;13.80;8.68;;;;;;;14.76;78.09;102362.22;5050503;28;20037;-84
2021/08/25 04:48:22;;;;;;;18.88;10.18;;;;;;;14.73;78.26;102362.88;5051148;28;20040;-85
2021/08/25 04:50:49;;;;;;;13.57;8.32;;;;;;;14.72;78.05;102366.81;5058804;28;20067;-84
2021/08/25 04:53:17;;;;;;;18.20;9.70;;;;;;;14.76;78.11;102364.16;5070000;28;20044;-84
2021/08/25 04:55:44;;;;;;;15.50;9.27;;;;;;;14.75;77.92;102354.97;5062758;28;20078;-84
2021/08/25 04:58:11;;;;;;;17.73;9.45;;;;;;;14.78;78.30;102361.84;5039990;28;20045;-84
2021/08/25 05:00:38;;;;;;;15.88;10.15;;;;;;;14.76;78.40;102367.78;5050975;28;20037;-84
2021/08/25 05:03:05;;;;;;;18.52;10.77;;;;;;;14.80;78.60;102365.94;5033344;28;20048;-84
2021/08/25 05:05:32;;;;;;;14.32;8.65;;;;;;;14.85;78.82;102364.97;5050082;28;20040;-85
2021/08/25 05:07:58;;;;;;;17.40;10.40;;;;;;;14.88;78.87;102365.09;5063844;28;20460;-84
2021/08/25 05:10:25;;;;;;;13.68;8.38;;;;;;;14.98;78.70;102369.50;5063639;28;20519;-85
2021/08/25 05:12:52;;;;;;;14.68;9.40;;;;;;;15.00;78.85;102369.97;5060690;28;20059;-84
2021/08/25 05:15:19;;;;;;;15.38;9.68;;;;;;;15.01;78.75;102358.47;5066911;28;20479;-84
2021/08/25 05:17:45;;;;;;;16.80;8.43;;;;;;;15.01;79.40;102364.03;5036914;28;20048;-85
2021/08/25 05:20:12;;;;;;;14.13;9.88;;;;;;;15.09;78.91;102362.38;5057526;28;20036;-85
2021/08/25 05:22:39;;;;;;;16.42;9.20;;;;;;;15.13;78.79;102366.94;5070346;28;20040;-85
2021/08/25 05:25:06;;;;;;;15.45;9.00;;;;;;;15.16;78.97;102360.69;5057669;28;20071;-84
2021/08/25 05:27:33;;;;;;;16.00;9.52;;;;;;;15.15;79.08;102358.22;5061535;28;20029;-85
2021/08/25 05:29:59;;;;;;;24.70;10.68;;;;;;;15.15;79.30;102369.38;5051683;28;20048;-85
2021/08/25 05:32:26;;;;;;;15.75;9.55;;;;;;;15.10;79.55;102366.78;5043157;28;20139;-84
2021/08/25 05:34:53;;;;;;;18.02;10.48;;;;;;;15.08;79.53;102364.34;5064232;28;20055;-85
2021/08/25 05:37:20;;;;;;;14.57;8.38;;;;;;;15.10;79.52;102359.25;5060184;28;20037;-84
2021/08/25 05:39:46;;;;;;;15.02;9.05;;;;;;;15.13;79.57;102375.31;5071395;28;20045;-85
2021/08/25 05:42:13;;;;;;;16.17;10.23;;;;;;;15.16;79.35;102360.69;5061131;28;20045;-84
2021/08/25 05:44:40;;;;;;;14.98;9.85;;;;;;;15.19;79.21;102359.22;5053264;28;20029;-84
2021/08/25 05:47:06;;;;;;;12.90;8.48;;;;;;;15.19;79.29;102362.81;5039307;28;20053;-84
2021/08/25 05:49:33;;;;;;;16.25;10.00;;;;;;;15.20;79.08;102364.44;5054298;28;20067;-85
2021/08/25 05:52:00;;;;;;;32.50;19.38;;;;;;;15.18;79.05;102363.97;5054011;28;20076;-84
2021/08/25 05:54:26;;;;;;;17.02;10.95;;;;;;;15.13;79.24;102355.78;5043807;28;20063;-84
2021/08/25 05:56:53;;;;;;;18.52;10.82;;;;;;;15.17;79.31;102351.16;5049036;28;20045;-84
2021/08/25 05:59:20;;;;;;;16.60;10.82;;;;;;;15.24;79.42;102353.44;5053761;28;20033;-84
2021/08/25 06:01:46;;;;;;;13.80;9.27;;;;;;;15.25;79.12;102353.06;5053010;28;20513;-85
2021/08/25 06:04:13;;;;;;;19.70;10.55;;;;;;;15.23;79.35;102344.22;5051859;28;20053;-85
2021/08/25 06:06:40;;;;;;;18.35;10.35;;;;;;;15.22;79.28;102350.97;5034710;28;20408;-85
2021/08/25 06:09:07;;;;;;;14.80;8.90;;;;;;;15.19;79.44;102350.84;5053806;28;20163;-84
2021/08/25 06:11:38;;;;;;;13.98;9.30;;;;;;;15.21;79.56;102352.13;5057124;28;20074;-85
2021/08/25 06:14:05;;;;;;;16.45;10.07;;;;;;;15.26;79.58;102348.31;5054905;28;20272;-84
2021/08/25 06:16:32;;;;;;;13.00;9.27;;;;;;;15.32;79.65;102354.53;5053867;28;20071;-84
2021/08/25 06:19:04;;;;;;;17.92;10.35;;;;;;;15.34;79.54;102346.63;5082048;28;20043;-84
2021/08/25 06:21:31;;;;;;;22.10;13.20;;;;;;;15.38;79.31;102358.75;5046438;28;20080;-85
2021/08/25 06:23:58;;;;;;;20.30;13.05;;;;;;;15.39;79.61;102357.59;5046922;28;20051;-85
2021/08/25 06:26:25;;;;;;;16.38;9.77;;;;;;;15.39;79.48;102352.81;5053048;28;20044;-85
2021/08/25 06:28:51;;;;;;;25.38;11.98;;;;;;;15.45;79.42;102356.25;5053375;28;20040;-82
2021/08/25 06:31:18;;;;;;;18.90;10.55;;;;;;;15.49;79.50;102357.25;5048432;28;20037;-85
2021/08/25 06:33:45;;;;;;;15.50;9.60;;;;;;;15.56;79.42;102357.50;5041334;28;20049;-84
2021/08/25 06:36:11;;;;;;;15.57;10.63;;;;;;;15.59;79.55;102354.03;5066930;28;20046;-84
2021/08/25 06:38:38;;;;;;;17.40;10.00;;;;;;;15.64;79.48;102348.25;5049023;28;20051;-84
2021/08/25 06:41:05;;;;;;;16.60;10.43;;;;;;;15.69;79.70;102345.25;5052362;28;20053;-84
2021/08/25 06:43:32;;;;;;;19.17;11.30;;;;;;;15.70;79.77;102341.31;5053876;28;20498;-84
2021/08/25 06:45:59;;;;;;;18.23;10.50;;;;;;;15.78;79.95;102348.78;5052148;28;20116;-85
2021/08/25 06:48:25;;;;;;;18.83;11.40;;;;;;;15.84;79.92;102336.25;5051300;28;20483;-84
2021/08/25 06:50:52;;;;;;;18.92;11.23;;;;;;;15.91;79.66;102344.09;5059784;28;20076;-84
2021/08/25 06:53:21;;;;;;;15.25;9.55;;;;;;;15.97;79.73;102339.91;5053268;28;20041;-84
2021/08/25 06:55:49;;;;;;;18.05;11.02;;;;;;;16.03;79.42;102344.13;5050392;28;20114;-84
2021/08/25 06:58:15;;;;;;;15.23;10.32;;;;;;;16.06;79.46;102338.66;5045007;28;20036;-84
2021/08/25 07:00:42;;;;;;;16.13;11.10;;;;;;;16.10;79.50;102339.59;5040778;28;20052;-83
2021/08/25 07:03:09;;;;;;;16.27;9.77;;;;;;;16.16;79.54;102341.03;5047034;28;20135;-84
2021/08/25 07:05:36;;;;;;;14.27;8.50;;;;;;;16.23;79.59;102349.66;5036212;28;20132;-83
2021/08/25 07:08:03;;;;;;;15.07;10.13;;;;;;;16.31;79.40;102345.13;5046173;28;20120;-82
2021/08/25 07:10:30;;;;;;;14.93;10.25;;;;;;;16.36;79.04;102347.75;5052627;28;20120;-84
2021/08/25 07:12:56;;;;;;;13.10;9.80;;;;;;;16.42;79.18;102346.31;5049970;28;20382;-84
2021/08/25 07:15:23;;;;;;;14.30;9.90;;;;;;;16.49;79.24;102345.78;5047523;28;20483;-83
2021/08/25 07:17:50;;;;;;;22.73;10.05;;;;;;;16.57;79.11;102356.06;5069217;28;20120;-84
2021/08/25 07:20:20;;;;;;;16.77;11.00;;;;;;;16.63;79.08;102343.47;5050088;28;20044;-84
2021/08/25 07:22:47;;;;;;;17.77;9.77;;;;;;;16.68;78.84;102351.66;5048470;28;20046;-84
2021/08/25 07:25:14;;;;;;;20.50;12.05;;;;;;;16.71;78.73;102354.56;5049203;28;20033;-84
2021/08/25 07:27:41;;;;;;;17.20;10.68;;;;;;;16.77;78.59;102349.56;5058151;28;20041;-84
2021/08/25 07:30:09;;;;;;;15.30;10.40;;;;;;;16.86;78.54;102345.50;5042659;28;20119;-84
2021/08/25 07:32:39;;;;;;;17.90;11.32;;;;;;;16.97;78.33;102352.25;5034196;28;20037;-83
2021/08/25 07:35:10;;;;;;;16.65;12.00;;;;;;;17.03;78.08;102356.47;5054822;28;20055;-84
2021/08/25 07:37:37;;;;;;;14.55;10.55;;;;;;;17.11;77.96;102351.91;5032224;28;20039;-85
2021/08/25 07:40:06;;;;;;;13.75;9.25;;;;;;;17.19;77.73;102350.97;5050704;28;20041;-83
2021/08/25 07:42:33;;;;;;;19.73;11.02;;;;;;;17.28;77.37;102348.88;5068348;28;20063;-84
2021/08/25 07:45:00;;;;;;;13.55;10.05;;;;;;;17.40;77.50;102348.84;5051926;28;20376;-84
2021/08/25 07:47:26;;;;;;;13.27;9.23;;;;;;;17.53;77.29;102358.88;5049321;28;20061;-85
2021/08/25 07:49:54;;;;;;;12.48;9.75;;;;;;;17.63;77.28;102352.78;5047537;28;20039;-83
2021/08/25 07:52:23;;;;;;;12.93;9.30;;;;;;;17.74;77.20;102360.72;5053122;28;20123;-85
2021/08/25 07:54:50;;;;;;;16.15;8.48;;;;;;;17.82;76.97;102359.75;5051294;28;20043;-84
2021/08/25 07:57:16;;;;;;;13.57;10.85;;;;;;;17.90;76.75;102350.34;5051508;28;20040;-85
2021/08/25 07:59:43;;;;;;;15.18;9.27;;;;;;;17.99;76.43;102354.66;5051674;28;20045;-84
2021/08/25 08:02:10;;;;;;;12.32;8.73;;;;;;;18.06;76.13;102359.63;5050575;28;20052;-84
2021/08/25 08:04:37;;;;;;;16.73;9.43;;;;;;;18.04;75.82;102359.19;5030801;28;20049;-83
2021/08/25 08:07:05;;;;;;;13.20;8.50;;;;;;;18.06;75.76;102354.84;5057306;28;20441;-84
2021/08/25 08:09:32;;;;;;;12.93;7.03;;;;;;;18.16;75.83;102356.34;5038659;28;20041;-83
2021/08/25 08:11:59;;;;;;;13.38;7.10;;;;;;;18.21;75.76;102356.88;5054180;28;20036;-83
2021/08/25 08:14:26;;;;;;;11.35;7.90;;;;;;;18.25;75.47;102348.56;5057685;28;20036;-82
2021/08/25 08:16:55;;;;;;;14.50;7.68;;;;;;;18.31;76.03;102349.94;5039889;28;20091;-83
2021/08/25 08:19:29;;;;;;;9.10;6.75;;;;;;;18.40;76.25;102342.16;5050481;28;20047;-85
2021/08/25 08:21:58;;;;;;;8.50;6.72;;;;;;;18.50;76.02;102341.69;5033049;28;20041;-86
2021/08/25 08:24:25;;;;;;;8.40;6.22;;;;;;;18.62;75.66;102340.78;5067062;28;20048;-86
2021/08/25 08:26:52;;;;;;;8.20;6.43;;;;;;;18.84;75.16;102352.19;5054003;28;20051;-85
2021/08/25 08:29:19;;;;;;;9.38;5.82;;;;;;;19.07;74.33;102334.69;5049149;28;20071;-83
2021/08/25 08:31:46;;;;;;;7.53;5.35;;;;;;;19.27;73.32;102337.16;5053912;28;20086;-85
2021/08/25 08:34:13;;;;;;;6.43;4.82;;;;;;;19.44;72.32;102336.81;5050506;28;20052;-86
2021/08/25 08:36:40;;;;;;;6.28;5.05;;;;;;;19.56;71.06;102343.47;5061554;28;20028;-85
2021/08/25 08:39:07;;;;;;;8.43;6.05;;;;;;;19.60;69.94;102336.75;5031580;28;20107;-84
2021/08/25 08:41:34;;;;;;;8.05;5.82;;;;;;;19.68;69.32;102340.53;5070192;28;20041;-86
2021/08/25 08:44:01;;;;;;;8.50;5.78;;;;;;;19.69;68.76;102337.38;5054893;28;20107;-83
2021/08/25 08:46:27;;;;;;;12.15;6.22;;;;;;;19.68;69.04;102334.91;5049949;28;20369;-85
2021/08/25 08:48:55;;;;;;;11.10;7.07;;;;;;;19.65;68.80;102336.47;5050696;28;20392;-85
2021/08/25 08:51:24;;;;;;;8.70;5.38;;;;;;;19.68;68.68;102340.53;5054165;28;20047;-85
2021/08/25 08:53:52;;;;;;;6.43;5.50;;;;;;;19.73;68.74;102335.44;5054031;28;20139;-85
2021/08/25 08:56:19;;;;;;;8.15;5.32;;;;;;;19.76;68.13;102336.69;5054821;28;20064;-85
2021/08/25 08:58:48;;;;;;;6.53;5.00;;;;;;;19.83;67.92;102337.63;5064350;28;20050;-85
2021/08/25 09:01:15;;;;;;;6.75;4.97;;;;;;;20.02;67.87;102340.47;5055238;28;20043;-85
2021/08/25 09:03:42;;;;;;;8.50;5.32;;;;;;;20.34;67.14;102334.66;5045747;28;20065;-84
2021/08/25 09:06:10;;;;;;;7.43;5.38;;;;;;;20.49;66.50;102330.94;5063869;28;20033;-86
2021/08/25 09:08:40;;;;;;;5.88;4.07;;;;;;;20.70;66.50;102331.31;5070856;28;20463;-87
2021/08/25 09:11:14;;;;;;;6.57;5.00;;;;;;;21.21;65.84;102329.75;5051359;28;20039;-87
2021/08/25 09:13:50;;;;;;;8.40;5.53;;;;;;;21.42;65.45;102328.47;5051348;28;20067;-86
2021/08/25 09:16:35;;;;;;;7.90;5.43;;;;;;;21.36;64.36;102329.97;5054475;28;20045;-80
2021/08/25 09:19:04;;;;;;;10.80;5.25;;;;;;;21.20;64.03;102324.50;5043977;28;20056;-76
2021/08/25 09:21:36;;;;;;;13.48;5.72;;;;;;;21.11;63.83;102330.41;5053918;28;20045;-84
2021/08/25 09:24:05;;;;;;;8.05;4.43;;;;;;;21.08;64.16;102327.53;5055848;28;20408;-81
2021/08/25 09:26:37;;;;;;;11.30;5.47;;;;;;;20.96;63.48;102322.91;5054546;28;20435;-85
2021/08/25 09:29:20;;;;;;;6.07;4.82;;;;;;;20.95;62.78;102326.09;5039746;28;20073;-87
2021/08/25 09:31:49;;;;;;;11.18;5.30;;;;;;;21.00;63.76;102323.75;5035627;28;20111;-88
2021/08/25 09:34:26;;;;;;;10.43;4.70;;;;;;;21.47;63.38;102330.94;5068775;28;20041;-88
2021/08/25 09:37:15;;;;;;;8.38;5.07;;;;;;;21.98;61.26;102329.22;5052299;28;20041;-88
2021/08/25 09:39:45;;;;;;;6.97;4.38;;;;;;;22.34;62.13;102313.50;5053033;28;20041;-88
2021/08/25 09:42:18;;;;;;;5.43;3.93;;;;;;;22.69;62.05;102322.31;5052716;28;20048;-89
2021/08/25 09:44:47;;;;;;;5.07;3.75;;;;;;;22.84;61.01;102309.13;5052761;28;20280;-89
2021/08/25 09:47:13;;;;;;;4.43;3.53;;;;;;;23.26;60.68;102315.09;5054658;28;20037;-87
2021/08/25 09:49:40;;;;;;;3.95;3.47;;;;;;;23.44;59.77;102304.72;5038910;28;20567;-85
2021/08/25 09:52:07;;;;;;;3.53;3.05;;;;;;;23.37;58.91;102315.19;5054446;28;20056;-85
2021/08/25 09:54:34;;;;;;;9.65;3.72;;;;;;;23.31;58.71;102322.38;5059297;28;20044;-85
2021/08/25 09:57:01;;;;;;;4.03;3.10;;;;;;;23.10;58.43;102313.75;5066897;28;20055;-84
2021/08/25 09:59:28;;;;;;;4.88;3.42;;;;;;;23.23;58.43;102315.06;5047244;28;20041;-85
2021/08/25 10:01:54;;;;;;;8.93;3.17;;;;;;;23.74;56.85;102314.97;5051380;28;20120;-87
2021/08/25 10:04:21;;;;;;;3.80;3.25;;;;;;;24.37;56.37;102315.19;5048027;28;20041;-85
2021/08/25 10:06:49;;;;;;;5.38;3.10;;;;;;;24.74;55.57;102312.78;5035240;28;20049;-87
2021/08/25 10:09:17;;;;;;;4.82;3.30;;;;;;;24.99;55.24;102314.84;5038498;28;20037;-87
2021/08/25 10:11:46;;;;;;;5.13;3.70;;;;;;;25.12;54.44;102308.34;5060363;28;20131;-85
2021/08/25 10:14:16;;;;;;;5.95;4.28;;;;;;;25.29;54.11;102301.00;5053944;28;20086;-87
2021/08/25 10:16:47;;;;;;;7.00;4.95;;;;;;;25.33;53.27;102302.63;5052253;28;20468;-86
2021/08/25 10:19:24;;;;;;;4.05;3.60;;;;;;;25.34;52.99;102298.56;5050292;28;20045;-86
2021/08/25 10:21:52;;;;;;;7.15;4.38;;;;;;;25.42;52.63;102293.66;5062500;28;20494;-87
2021/08/25 10:24:19;;;;;;;3.90;3.30;;;;;;;25.37;52.35;102296.94;5069027;28;20039;-86
2021/08/25 10:27:08;;;;;;;8.10;3.58;;;;;;;25.29;51.79;102284.00;5051185;28;20063;-86
2021/08/25 10:30:00;;;;;;;3.90;3.13;;;;;;;25.20;51.93;102292.94;5053224;28;20131;-86
2021/08/25 10:32:28;;;;;;;6.63;4.60;;;;;;;25.08;52.54;102275.53;5052489;28;20041;-87
2021/08/25 10:35:13;;;;;;;8.63;3.90;;;;;;;25.48;51.68;102277.88;5045673;28;20060;-87
2021/08/25 10:37:40;;;;;;;7.85;4.28;;;;;;;25.72;51.52;102285.50;5050471;28;20040;-86
2021/08/25 10:40:08;;;;;;;5.80;4.55;;;;;;;25.83;51.35;102269.22;5068117;28;20049;-86
2021/08/25 10:42:49;;;;;;;7.32;4.15;;;;;;;25.94;49.61;102269.97;5055921;28;20119;-87
2021/08/25 10:45:37;;;;;;;3.92;2.90;;;;;;;26.00;51.22;102268.31;5054734;28;20723;-87
2021/08/25 10:48:08;;;;;;;5.28;3.70;;;;;;;26.12;50.74;102263.38;5057330;28;20036;-86
2021/08/25 10:50:54;;;;;;;3.88;3.00;;;;;;;26.07;49.53;102266.66;5055736;28;20120;-87
2021/08/25 10:53:33;;;;;;;3.38;2.53;;;;;;;25.99;51.10;102266.72;5050369;28;20041;-83
2021/08/25 10:56:13;;;;;;;4.97;3.35;;;;;;;25.98;51.00;102265.09;5046010;28;20040;-82
2021/08/25 10:58:55;;;;;;;6.50;4.07;;;;;;;25.85;51.08;102261.09;5063571;28;20044;-83
2021/08/25 11:01:34;;;;;;;3.63;2.42;;;;;;;25.79;51.09;102262.75;5048563;28;20136;-83
2021/08/25 11:04:05;;;;;;;6.10;2.60;;;;;;;25.56;51.81;102253.13;5050879;28;20539;-83
2021/08/25 11:06:38;;;;;;;6.70;2.60;;;;;;;25.32;52.23;102254.81;5052464;28;20116;-83
2021/08/25 11:09:19;;;;;;;5.68;2.80;;;;;;;25.24;52.79;102256.06;5051267;28;20072;-83
2021/08/25 11:12:12;;;;;;;3.58;2.90;;;;;;;25.16;52.52;102246.78;5045097;28;20045;-82
2021/08/25 11:14:49;;;;;;;4.40;3.17;;;;;;;24.90;53.08;102254.91;5042987;28;20144;-83
2021/08/25 11:17:26;;;;;;;3.45;2.90;;;;;;;24.69;53.46;102255.72;5063561;28;20032;-83
2021/08/25 11:19:52;;;;;;;4.28;3.35;;;;;;;24.56;53.69;102246.03;5049529;28;20052;-84
2021/08/25 11:22:30;;;;;;;4.47;3.42;;;;;;;24.41;53.91;102239.53;5033806;28;20479;-84